Map

Track Data

SID SEASON NUMBER BASIN SUBBASIN NAME ISO_TIME NATURE LAT LON WMO_WIND WMO_PRES WMO_AGENCY TRACK_TYPE DIST2LAND LANDFALL IFLAG USA_AGENCY USA_ATCF_ID USA_LAT USA_LON USA_RECORD USA_STATUS USA_WIND USA_PRES USA_SSHS USA_R34_NE USA_R34_SE USA_R34_SW USA_R34_NW USA_R50_NE USA_R50_SE USA_R50_SW USA_R50_NW USA_R64_NE USA_R64_SE USA_R64_SW USA_R64_NW USA_POCI USA_ROCI USA_RMW USA_EYE TOKYO_LAT TOKYO_LON TOKYO_GRADE TOKYO_WIND TOKYO_PRES TOKYO_R50_DIR TOKYO_R50_LONG TOKYO_R50_SHORT TOKYO_R30_DIR TOKYO_R30_LONG TOKYO_R30_SHORT TOKYO_LAND CMA_LAT CMA_LON CMA_CAT CMA_WIND CMA_PRES HKO_LAT HKO_LON HKO_CAT HKO_WIND HKO_PRES NEWDELHI_LAT NEWDELHI_LON NEWDELHI_GRADE NEWDELHI_WIND NEWDELHI_PRES NEWDELHI_CI NEWDELHI_DP NEWDELHI_POCI REUNION_LAT REUNION_LON REUNION_TYPE REUNION_WIND REUNION_PRES REUNION_TNUM REUNION_CI REUNION_RMW REUNION_R34_NE REUNION_R34_SE REUNION_R34_SW REUNION_R34_NW REUNION_R50_NE REUNION_R50_SE REUNION_R50_SW REUNION_R50_NW REUNION_R64_NE REUNION_R64_SE REUNION_R64_SW REUNION_R64_NW BOM_LAT BOM_LON BOM_TYPE BOM_WIND BOM_PRES BOM_TNUM BOM_CI BOM_RMW BOM_R34_NE BOM_R34_SE BOM_R34_SW BOM_R34_NW BOM_R50_NE BOM_R50_SE BOM_R50_SW BOM_R50_NW BOM_R64_NE BOM_R64_SE BOM_R64_SW BOM_R64_NW BOM_ROCI BOM_POCI BOM_EYE BOM_POS_METHOD BOM_PRES_METHOD NADI_LAT NADI_LON NADI_CAT NADI_WIND NADI_PRES WELLINGTON_LAT WELLINGTON_LON WELLINGTON_WIND WELLINGTON_PRES DS824_LAT DS824_LON DS824_STAGE DS824_WIND DS824_PRES TD9636_LAT TD9636_LON TD9636_STAGE TD9636_WIND TD9636_PRES TD9635_LAT TD9635_LON TD9635_WIND TD9635_PRES TD9635_ROCI NEUMANN_LAT NEUMANN_LON NEUMANN_CLASS NEUMANN_WIND NEUMANN_PRES MLC_LAT MLC_LON MLC_CLASS MLC_WIND MLC_PRES USA_GUST BOM_GUST BOM_GUST_PER REUNION_GUST REUNION_GUST_PER USA_SEAHGT USA_SEARAD_NE USA_SEARAD_SE USA_SEARAD_SW USA_SEARAD_NW STORM_SPEED STORM_DIR
1999279N14315 1999 87 NA NA NOT_NAMED 1999-10-06 00:00:00 TS 14.4000 -44.8000 30 1008 hurdat_atl main 1337 1331 O_____________ hurdat_atl AL121999 14.4000 -44.8000 TD 30 1008 -1 8 306
1999279N14315 1999 87 NA NA NOT_NAMED 1999-10-06 03:00:00 TS 14.6201 -45.1148 main 1335 1330 P_____________ AL121999 14.6201 -45.1148 TD 30 1008 -1 7 305
1999279N14315 1999 87 NA NA NOT_NAMED 1999-10-06 06:00:00 TS 14.8000 -45.4000 30 1008 hurdat_atl main 1333 1326 O_____________ hurdat_atl AL121999 14.8000 -45.4000 TD 30 1008 -1 6 301
1999279N14315 1999 87 NA NA NOT_NAMED 1999-10-06 09:00:00 TS 14.9150 -45.6301 main 1329 1323 P_____________ AL121999 14.9150 -45.6301 TD 30 1007 -1 4 297
1999279N14315 1999 87 NA NA NOT_NAMED 1999-10-06 12:00:00 TS 15.0000 -45.8000 30 1007 hurdat_atl main 1326 1319 O_____________ hurdat_atl AL121999 15.0000 -45.8000 TD 30 1007 -1 3 304
1999279N14315 1999 87 NA NA NOT_NAMED 1999-10-06 15:00:00 TS 15.1000 -45.9150 main 1329 1323 P_____________ AL121999 15.1000 -45.9150 TD 30 1007 -1 3 316
1999279N14315 1999 87 NA NA NOT_NAMED 1999-10-06 18:00:00 TS 15.2000 -46.0000 30 1007 hurdat_atl main 1332 1332 O_____________ hurdat_atl AL121999 15.2000 -46.0000 TD 30 1007 -1 3 319
1999279N14315 1999 87 NA NA NOT_NAMED 1999-10-06 21:00:00 TS 15.3000 -46.0925 main 1335 1335 P_____________ AL121999 15.3000 -46.0925 TD 30 1007 -1 3 316
1999279N14315 1999 87 NA NA NOT_NAMED 1999-10-07 00:00:00 TS 15.4000 -46.2000 30 1008 hurdat_atl main 1339 1333 O_____________ hurdat_atl AL121999 15.4000 -46.2000 TD 30 1008 -1 3 309
1999279N14315 1999 87 NA NA NOT_NAMED 1999-10-07 03:00:00 TS 15.5000 -46.3500 main 1343 1337 P_____________ AL121999 15.5000 -46.3500 TD 30 1008 -1 4 305
1999279N14315 1999 87 NA NA NOT_NAMED 1999-10-07 06:00:00 TS 15.6000 -46.5000 30 1008 hurdat_atl main 1342 1342 O_____________ hurdat_atl AL121999 15.6000 -46.5000 TD 30 1008 -1 3 310
1999279N14315 1999 87 NA NA NOT_NAMED 1999-10-07 09:00:00 TS 15.7000 -46.5925 main 1346 1346 P_____________ AL121999 15.7000 -46.5925 TD 30 1008 -1 3 316
1999279N14315 1999 87 NA NA NOT_NAMED 1999-10-07 12:00:00 TS 15.8000 -46.7000 30 1008 hurdat_atl main 1350 1345 O_____________ hurdat_atl AL121999 15.8000 -46.7000 TD 30 1008 -1 3 303
1999279N14315 1999 87 NA NA NOT_NAMED 1999-10-07 15:00:00 TS 15.8850 -46.8850 main 1350 1345 P_____________ AL121999 15.8850 -46.8850 TD 30 1008 -1 4 297
1999279N14315 1999 87 NA NA NOT_NAMED 1999-10-07 18:00:00 TS 16.0000 -47.1000 30 1008 hurdat_atl main 1350 1345 O_____________ hurdat_atl AL121999 16.0000 -47.1000 TD 30 1008 -1 5 307
1999279N14315 1999 87 NA NA NOT_NAMED 1999-10-07 21:00:00 TS 16.2000 -47.3149 main 1360 1355 P_____________ AL121999 16.2000 -47.3149 TD 30 1008 -1 6 316
1999279N14315 1999 87 NA NA NOT_NAMED 1999-10-08 00:00:00 TS 16.4000 -47.5000 30 1008 hurdat_atl main 1371 1371 O_____________ hurdat_atl AL121999 16.4000 -47.5000 TD 30 1008 -1 4 318
1999279N14315 1999 87 NA NA NOT_NAMED 1999-10-08 03:00:00 TS 16.5150 -47.6151 main 1376 1376 P_____________ AL121999 16.5150 -47.6151 TD 30 1008 -1 3 316
1999279N14315 1999 87 NA NA NOT_NAMED 1999-10-08 06:00:00 TS 16.6000 -47.7000 30 1008 hurdat_atl main 1382 1382 O_____________ hurdat_atl AL121999 16.6000 -47.7000 TD 30 1008 -1 2 318
1999279N14315 1999 87 NA NA NOT_NAMED 1999-10-08 09:00:00 TS 16.6774 -47.7701 main 1388 1388 P_____________ AL121999 16.6774 -47.7701 TD 30 1008 -1 3 316
1999279N14315 1999 87 NA NA NOT_NAMED 1999-10-08 12:00:00 TS 16.8000 -47.9000 30 1008 hurdat_atl main 1394 1394 O_____________ hurdat_atl AL121999 16.8000 -47.9000 TD 30 1008 -1 5 313
1999279N14315 1999 87 NA NA NOT_NAMED 1999-10-08 15:00:00 TS 17.0202 -48.1597 main 1402 1402 P_____________ AL121999 17.0202 -48.1597 TD 27 1009 -1 8 311
1999279N14315 1999 87 NA NA NOT_NAMED 1999-10-08 18:00:00 TS 17.3000 -48.5000 25 1010 hurdat_atl main 1419 O_____________ hurdat_atl AL121999 17.3000 -48.5000 TD 25 1010 -1 9 311

About IBTrACS Database

This database is a web-friendly format of International Best Track Archive for Climate Stewardship (IBTrACS), a global best track data archive curated by NOAA dating back to 1842.

Updated: 2021-12-08